sensor_id;sensor_type;location;lat;lon;timestamp;pressure;altitude;pressure_sealevel;temperature;humidity
70546;BME280;58098;51.680;5.134;2023-02-23T00:01:35;101381.59;;;7.59;100.00
70546;BME280;58098;51.680;5.134;2023-02-23T00:04:01;101386.53;;;7.64;100.00
70546;BME280;58098;51.680;5.134;2023-02-23T00:06:28;101400.16;;;7.67;100.00
70546;BME280;58098;51.680;5.134;2023-02-23T00:08:54;101391.53;;;7.67;100.00
70546;BME280;58098;51.680;5.134;2023-02-23T00:11:20;101393.78;;;7.73;100.00
70546;BME280;58098;51.680;5.134;2023-02-23T00:13:47;101398.88;;;7.74;100.00
70546;BME280;58098;51.680;5.134;2023-02-23T00:16:22;101398.69;;;7.77;100.00
70546;BME280;58098;51.680;5.134;2023-02-23T00:18:50;101394.53;;;7.75;100.00
70546;BME280;58098;51.680;5.134;2023-02-23T00:21:21;101395.47;;;7.74;100.00
70546;BME280;58098;51.680;5.134;2023-02-23T00:26:15;101396.19;;;7.76;100.00
70546;BME280;58098;51.680;5.134;2023-02-23T00:28:42;101399.72;;;7.75;100.00
70546;BME280;58098;51.680;5.134;2023-02-23T00:31:08;101373.97;;;7.56;100.00
70546;BME280;58098;51.680;5.134;2023-02-23T00:33:33;101374.06;;;7.55;100.00
70546;BME280;58098;51.680;5.134;2023-02-23T00:36:10;101342.22;;;7.37;100.00
70546;BME280;58098;51.680;5.134;2023-02-23T00:38:37;101389.75;;;7.67;100.00
70546;BME280;58098;51.680;5.134;2023-02-23T00:41:05;101380.84;;;7.57;100.00
70546;BME280;58098;51.680;5.134;2023-02-23T00:43:39;101389.19;;;7.62;100.00
70546;BME280;58098;51.680;5.134;2023-02-23T00:46:14;101384.06;;;7.47;100.00
70546;BME280;58098;51.680;5.134;2023-02-23T00:48:41;101390.75;;;7.51;100.00
70546;BME280;58098;51.680;5.134;2023-02-23T00:51:07;101396.31;;;7.45;100.00
70546;BME280;58098;51.680;5.134;2023-02-23T00:53:33;101391.13;;;7.45;100.00
70546;BME280;58098;51.680;5.134;2023-02-23T00:55:58;101391.13;;;7.45;100.00
70546;BME280;58098;51.680;5.134;2023-02-23T00:58:24;101398.13;;;7.43;100.00
70546;BME280;58098;51.680;5.134;2023-02-23T01:00:51;101395.06;;;7.36;100.00
70546;BME280;58098;51.680;5.134;2023-02-23T01:03:17;101385.09;;;7.28;100.00
70546;BME280;58098;51.680;5.134;2023-02-23T01:05:42;101397.16;;;7.29;100.00
70546;BME280;58098;51.680;5.134;2023-02-23T01:08:09;101403.38;;;7.27;100.00
70546;BME280;58098;51.680;5.134;2023-02-23T01:10:42;101399.81;;;7.28;100.00
70546;BME280;58098;51.680;5.134;2023-02-23T01:13:09;101401.59;;;7.27;100.00
70546;BME280;58098;51.680;5.134;2023-02-23T01:15:40;101397.16;;;7.29;100.00
70546;BME280;58098;51.680;5.134;2023-02-23T01:18:06;101396.06;;;7.33;100.00
70546;BME280;58098;51.680;5.134;2023-02-23T01:20:33;101391.41;;;7.24;100.00
70546;BME280;58098;51.680;5.134;2023-02-23T01:23:00;101401.50;;;7.29;100.00
70546;BME280;58098;51.680;5.134;2023-02-23T01:25:26;101397.66;;;7.20;100.00
70546;BME280;58098;51.680;5.134;2023-02-23T01:27:53;101391.72;;;7.18;100.00
70546;BME280;58098;51.680;5.134;2023-02-23T01:30:19;101396.91;;;7.18;100.00
70546;BME280;58098;51.680;5.134;2023-02-23T01:32:45;101406.88;;;7.26;100.00
70546;BME280;58098;51.680;5.134;2023-02-23T01:35:11;101400.09;;;7.23;100.00
70546;BME280;58098;51.680;5.134;2023-02-23T01:37:39;101419.59;;;7.30;100.00
70546;BME280;58098;51.680;5.134;2023-02-23T01:40:06;101412.81;;;7.28;100.00
70546;BME280;58098;51.680;5.134;2023-02-23T01:42:53;101425.28;;;7.21;100.00
70546;BME280;58098;51.680;5.134;2023-02-23T01:45:24;101425.47;;;7.18;100.00
70546;BME280;58098;51.680;5.134;2023-02-23T01:47:54;101421.63;;;7.10;100.00
70546;BME280;58098;51.680;5.134;2023-02-23T01:50:21;101420.94;;;7.06;100.00
70546;BME280;58098;51.680;5.134;2023-02-23T01:52:49;101426.66;;;7.13;100.00
70546;BME280;58098;51.680;5.134;2023-02-23T01:55:16;101429.00;;;7.17;100.00
70546;BME280;58098;51.680;5.134;2023-02-23T01:57:49;101415.28;;;7.15;100.00
70546;BME280;58098;51.680;5.134;2023-02-23T02:00:18;101431.31;;;7.22;100.00
70546;BME280;58098;51.680;5.134;2023-02-23T02:02:45;101422.38;;;7.12;100.00
70546;BME280;58098;51.680;5.134;2023-02-23T02:05:14;101436.84;;;7.16;100.00
70546;BME280;58098;51.680;5.134;2023-02-23T02:07:45;101429.16;;;7.14;100.00
70546;BME280;58098;51.680;5.134;2023-02-23T02:10:11;101432.66;;;7.13;100.00
70546;BME280;58098;51.680;5.134;2023-02-23T02:12:38;101415.75;;;7.06;100.00
70546;BME280;58098;51.680;5.134;2023-02-23T02:15:07;101420.63;;;7.12;100.00
70546;BME280;58098;51.680;5.134;2023-02-23T02:47:57;101418.94;;;7.11;100.00
70546;BME280;58098;51.680;5.134;2023-02-23T02:53:08;101416.44;;;7.10;100.00
70546;BME280;58098;51.680;5.134;2023-02-23T02:55:36;101407.06;;;7.07;100.00
70546;BME280;58098;51.680;5.134;2023-02-23T02:58:05;101398.53;;;7.05;100.00
70546;BME280;58098;51.680;5.134;2023-02-23T03:00:43;101408.72;;;7.08;100.00
70546;BME280;58098;51.680;5.134;2023-02-23T03:03:38;101412.41;;;7.04;100.00
70546;BME280;58098;51.680;5.134;2023-02-23T03:06:30;101417.44;;;7.07;100.00
70546;BME280;58098;51.680;5.134;2023-02-23T03:15:23;101408.31;;;7.00;100.00
70546;BME280;58098;51.680;5.134;2023-02-23T03:21:08;101407.47;;;7.00;100.00
70546;BME280;58098;51.680;5.134;2023-02-23T03:24:22;101419.63;;;6.99;100.00
70546;BME280;58098;51.680;5.134;2023-02-23T03:27:28;101416.28;;;6.97;100.00
70546;BME280;58098;51.680;5.134;2023-02-23T03:30:24;101421.09;;;7.03;100.00
70546;BME280;58098;51.680;5.134;2023-02-23T03:33:14;101405.31;;;6.92;100.00
70546;BME280;58098;51.680;5.134;2023-02-23T03:36:06;101413.56;;;6.99;100.00
70546;BME280;58098;51.680;5.134;2023-02-23T03:38:57;101430.47;;;7.06;100.00
70546;BME280;58098;51.680;5.134;2023-02-23T03:41:43;101416.28;;;6.97;100.00
70546;BME280;58098;51.680;5.134;2023-02-23T03:44:36;101420.88;;;6.92;100.00
70546;BME280;58098;51.680;5.134;2023-02-23T03:47:24;101405.88;;;6.82;100.00
70546;BME280;58098;51.680;5.134;2023-02-23T03:50:15;101433.69;;;6.95;100.00
70546;BME280;58098;51.680;5.134;2023-02-23T03:53:01;101439.53;;;6.99;100.00
70546;BME280;58098;51.680;5.134;2023-02-23T03:55:49;101443.91;;;6.98;100.00
70546;BME280;58098;51.680;5.134;2023-02-23T03:58:38;101433.59;;;6.97;100.00
70546;BME280;58098;51.680;5.134;2023-02-23T04:01:25;101442.06;;;7.00;100.00
70546;BME280;58098;51.680;5.134;2023-02-23T04:04:10;101435.19;;;6.99;100.00
70546;BME280;58098;51.680;5.134;2023-02-23T04:06:56;101439.47;;;7.00;100.00
70546;BME280;58098;51.680;5.134;2023-02-23T04:09:41;101438.72;;;6.98;100.00
70546;BME280;58098;51.680;5.134;2023-02-23T04:18:23;101448.16;;;6.99;100.00
70546;BME280;58098;51.680;5.134;2023-02-23T04:20:49;101442.38;;;6.94;100.00
70546;BME280;58098;51.680;5.134;2023-02-23T04:23:14;101442.53;;;6.91;100.00
70546;BME280;58098;51.680;5.134;2023-02-23T04:25:40;101448.41;;;6.95;100.00
70546;BME280;58098;51.680;5.134;2023-02-23T04:28:06;101437.53;;;6.88;100.00
70546;BME280;58098;51.680;5.134;2023-02-23T04:30:31;101454.59;;;6.92;100.00
70546;BME280;58098;51.680;5.134;2023-02-23T04:32:56;101452.84;;;6.93;100.00
70546;BME280;58098;51.680;5.134;2023-02-23T04:35:23;101446.22;;;6.87;100.00
70546;BME280;58098;51.680;5.134;2023-02-23T04:37:49;101451.84;;;6.95;100.00
70546;BME280;58098;51.680;5.134;2023-02-23T04:40:14;101435.69;;;6.90;100.00
70546;BME280;58098;51.680;5.134;2023-02-23T04:42:40;101452.44;;;7.00;100.00
70546;BME280;58098;51.680;5.134;2023-02-23T04:45:06;101450.59;;;7.02;100.00
70546;BME280;58098;51.680;5.134;2023-02-23T04:47:31;101460.81;;;7.05;100.00
70546;BME280;58098;51.680;5.134;2023-02-23T04:49:57;101439.47;;;7.00;100.00
70546;BME280;58098;51.680;5.134;2023-02-23T04:52:22;101449.66;;;7.03;100.00
70546;BME280;58098;51.680;5.134;2023-02-23T04:54:48;101453.78;;;7.07;100.00
70546;BME280;58098;51.680;5.134;2023-02-23T04:57:13;101442.97;;;6.99;100.00
70546;BME280;58098;51.680;5.134;2023-02-23T04:59:38;101418.63;;;6.86;100.00
70546;BME280;58098;51.680;5.134;2023-02-23T05:02:04;101440.38;;;6.99;100.00
70546;BME280;58098;51.680;5.134;2023-02-23T05:04:30;101443.06;;;6.98;100.00
70546;BME280;58098;51.680;5.134;2023-02-23T05:06:56;101434.75;;;6.91;100.00
70546;BME280;58098;51.680;5.134;2023-02-23T05:09:22;101443.31;;;6.93;100.00
70546;BME280;58098;51.680;5.134;2023-02-23T05:11:47;101452.34;;;7.02;100.00
70546;BME280;58098;51.680;5.134;2023-02-23T05:14:12;101458.53;;;6.99;100.00
70546;BME280;58098;51.680;5.134;2023-02-23T05:16:38;101464.66;;;6.98;100.00
70546;BME280;58098;51.680;5.134;2023-02-23T05:19:04;101450.25;;;6.93;100.00
70546;BME280;58098;51.680;5.134;2023-02-23T05:21:29;101458.78;;;6.95;100.00
70546;BME280;58098;51.680;5.134;2023-02-23T05:23:54;101444.97;;;6.94;100.00
70546;BME280;58098;51.680;5.134;2023-02-23T05:26:21;101466.16;;;7.02;100.00
70546;BME280;58098;51.680;5.134;2023-02-23T05:28:46;101470.66;;;6.99;100.00
70546;BME280;58098;51.680;5.134;2023-02-23T05:31:13;101471.84;;;6.93;100.00
70546;BME280;58098;51.680;5.134;2023-02-23T05:33:38;101477.63;;;6.98;100.00
70546;BME280;58098;51.680;5.134;2023-02-23T05:36:13;101479.44;;;6.96;100.00
70546;BME280;58098;51.680;5.134;2023-02-23T05:38:40;101481.22;;;6.96;100.00
70546;BME280;58098;51.680;5.134;2023-02-23T05:41:09;101484.81;;;6.93;100.00
70546;BME280;58098;51.680;5.134;2023-02-23T05:43:35;101485.72;;;6.92;100.00
70546;BME280;58098;51.680;5.134;2023-02-23T05:46:07;101467.31;;;6.81;100.00
70546;BME280;58098;51.680;5.134;2023-02-23T05:48:33;101464.63;;;6.83;100.00
70546;BME280;58098;51.680;5.134;2023-02-23T05:51:07;101473.16;;;6.85;100.00
70546;BME280;58098;51.680;5.134;2023-02-23T05:53:33;101477.34;;;6.87;100.00
70546;BME280;58098;51.680;5.134;2023-02-23T05:56:00;101476.75;;;6.82;100.00
70546;BME280;58098;51.680;5.134;2023-02-23T05:58:26;101491.91;;;6.90;100.00
70546;BME280;58098;51.680;5.134;2023-02-23T06:00:52;101464.88;;;6.78;100.00
70546;BME280;58098;51.680;5.134;2023-02-23T06:03:17;101479.03;;;6.88;100.00
70546;BME280;58098;51.680;5.134;2023-02-23T06:05:50;101487.56;;;6.90;100.00
70546;BME280;58098;51.680;5.134;2023-02-23T06:08:16;101486.13;;;6.85;100.00
70546;BME280;58098;51.680;5.134;2023-02-23T06:10:41;101475.25;;;6.78;100.00
70546;BME280;58098;51.680;5.134;2023-02-23T06:13:07;101489.56;;;6.85;100.00
70546;BME280;58098;51.680;5.134;2023-02-23T06:15:32;101473.50;;;6.79;100.00
70546;BME280;58098;51.680;5.134;2023-02-23T06:17:57;101493.00;;;6.86;100.00
70546;BME280;58098;51.680;5.134;2023-02-23T06:20:23;101499.03;;;6.86;100.00
70546;BME280;58098;51.680;5.134;2023-02-23T06:22:48;101498.50;;;6.80;100.00
70546;BME280;58098;51.680;5.134;2023-02-23T06:25:13;101493.56;;;6.75;100.00
70546;BME280;58098;51.680;5.134;2023-02-23T06:27:39;101496.06;;;6.77;100.00
70546;BME280;58098;51.680;5.134;2023-02-23T06:30:05;101506.38;;;6.78;100.00
70546;BME280;58098;51.680;5.134;2023-02-23T06:32:31;101504.63;;;6.79;100.00
70546;BME280;58098;51.680;5.134;2023-02-23T06:34:56;101496.91;;;6.77;100.00
70546;BME280;58098;51.680;5.134;2023-02-23T06:37:22;101495.50;;;6.72;100.00
70546;BME280;58098;51.680;5.134;2023-02-23T06:39:47;101501.44;;;6.74;100.00
70546;BME280;58098;51.680;5.134;2023-02-23T06:42:12;101502.25;;;6.74;100.00
70546;BME280;58098;51.680;5.134;2023-02-23T06:44:39;101510.63;;;6.79;100.00
70546;BME280;58098;51.680;5.134;2023-02-23T06:47:04;101504.69;;;6.77;100.00
70546;BME280;58098;51.680;5.134;2023-02-23T06:49:30;101509.81;;;6.79;100.00
70546;BME280;58098;51.680;5.134;2023-02-23T06:51:55;101515.81;;;6.79;100.00
70546;BME280;58098;51.680;5.134;2023-02-23T06:54:21;101522.38;;;6.86;100.00
70546;BME280;58098;51.680;5.134;2023-02-23T06:56:47;101530.97;;;6.87;100.00
70546;BME280;58098;51.680;5.134;2023-02-23T06:59:14;101538.69;;;6.88;100.00
70546;BME280;58098;51.680;5.134;2023-02-23T07:01:39;101531.22;;;6.82;100.00
70546;BME280;58098;51.680;5.134;2023-02-23T07:04:06;101524.69;;;6.75;100.00
70546;BME280;58098;51.680;5.134;2023-02-23T07:06:31;101534.75;;;6.81;100.00
70546;BME280;58098;51.680;5.134;2023-02-23T07:08:57;101533.91;;;6.81;100.00
70546;BME280;58098;51.680;5.134;2023-02-23T07:11:23;101545.63;;;6.88;100.00
70546;BME280;58098;51.680;5.134;2023-02-23T07:13:48;101545.53;;;6.89;100.00
70546;BME280;58098;51.680;5.134;2023-02-23T07:16:13;101545.72;;;6.86;100.00
70546;BME280;58098;51.680;5.134;2023-02-23T07:18:40;101560.19;;;6.90;100.00
70546;BME280;58098;51.680;5.134;2023-02-23T07:21:06;101550.13;;;6.84;100.00
70546;BME280;58098;51.680;5.134;2023-02-23T07:23:32;101561.84;;;6.91;100.00
70546;BME280;58098;51.680;5.134;2023-02-23T07:25:57;101556.00;;;6.88;100.00
70546;BME280;58098;51.680;5.134;2023-02-23T07:28:23;101570.25;;;6.96;100.00
70546;BME280;58098;51.680;5.134;2023-02-23T07:30:54;101572.53;;;7.02;100.00
70546;BME280;58098;51.680;5.134;2023-02-23T07:33:20;101582.81;;;7.04;100.00
70546;BME280;58098;51.680;5.134;2023-02-23T07:35:45;101580.81;;;7.09;100.00
70546;BME280;58098;51.680;5.134;2023-02-23T07:38:14;101589.19;;;7.14;100.00
70546;BME280;58098;51.680;5.134;2023-02-23T07:40:39;101597.44;;;7.22;100.00
70546;BME280;58098;51.680;5.134;2023-02-23T07:43:05;101596.44;;;7.24;100.00
70546;BME280;58098;51.680;5.134;2023-02-23T07:45:30;101606.47;;;7.30;100.00
70546;BME280;58098;51.680;5.134;2023-02-23T07:47:55;101608.00;;;7.35;100.00
70546;BME280;58098;51.680;5.134;2023-02-23T07:50:21;101616.56;;;7.37;100.00
70546;BME280;58098;51.680;5.134;2023-02-23T07:52:46;101612.19;;;7.37;100.00
70546;BME280;58098;51.680;5.134;2023-02-23T07:55:11;101615.47;;;7.41;100.00
70546;BME280;58098;51.680;5.134;2023-02-23T07:57:37;101608.66;;;7.38;100.00
70546;BME280;58098;51.680;5.134;2023-02-23T08:00:05;101619.75;;;7.42;100.00
70546;BME280;58098;51.680;5.134;2023-02-23T08:02:30;101602.97;;;7.31;100.00
70546;BME280;58098;51.680;5.134;2023-02-23T08:04:57;101628.94;;;7.47;100.00
70546;BME280;58098;51.680;5.134;2023-02-23T08:07:22;101618.38;;;7.35;100.00
70546;BME280;58098;51.680;5.134;2023-02-23T08:09:50;101618.03;;;7.25;100.00
70546;BME280;58098;51.680;5.134;2023-02-23T08:12:15;101631.63;;;7.30;100.00
70546;BME280;58098;51.680;5.134;2023-02-23T08:14:41;101622.13;;;7.29;100.00
70546;BME280;58098;51.680;5.134;2023-02-23T08:17:07;101611.41;;;7.19;100.00
70546;BME280;58098;51.680;5.134;2023-02-23T08:19:32;101634.63;;;7.38;100.00
70546;BME280;58098;51.680;5.134;2023-02-23T08:21:58;101638.97;;;7.38;100.00
70546;BME280;58098;51.680;5.134;2023-02-23T08:24:24;101623.84;;;7.30;100.00
70546;BME280;58098;51.680;5.134;2023-02-23T08:26:50;101610.66;;;7.17;100.00
70546;BME280;58098;51.680;5.134;2023-02-23T08:29:16;101638.72;;;7.26;100.00
70546;BME280;58098;51.680;5.134;2023-02-23T08:31:41;101643.81;;;7.28;100.00
70546;BME280;58098;51.680;5.134;2023-02-23T08:34:07;101634.44;;;7.25;100.00
70546;BME280;58098;51.680;5.134;2023-02-23T08:36:32;101629.94;;;7.29;100.00
70546;BME280;58098;51.680;5.134;2023-02-23T08:38:57;101628.09;;;7.31;100.00
70546;BME280;58098;51.680;5.134;2023-02-23T08:41:24;101632.44;;;7.30;100.00
70546;BME280;58098;51.680;5.134;2023-02-23T08:43:51;101634.13;;;7.31;100.00
70546;BME280;58098;51.680;5.134;2023-02-23T08:46:17;101646.09;;;7.34;100.00
70546;BME280;58098;51.680;5.134;2023-02-23T08:48:44;101646.00;;;7.36;100.00
70546;BME280;58098;51.680;5.134;2023-02-23T08:51:11;101638.31;;;7.34;100.00
70546;BME280;58098;51.680;5.134;2023-02-23T08:53:38;101650.41;;;7.51;100.00
70546;BME280;58098;51.680;5.134;2023-02-23T08:56:05;101664.41;;;7.64;100.00
70546;BME280;58098;51.680;5.134;2023-02-23T08:58:31;101655.63;;;7.66;100.00
70546;BME280;58098;51.680;5.134;2023-02-23T09:00:58;101665.16;;;7.66;100.00
70546;BME280;58098;51.680;5.134;2023-02-23T09:03:25;101661.72;;;7.65;100.00
70546;BME280;58098;51.680;5.134;2023-02-23T09:05:53;101672.88;;;7.67;100.00
70546;BME280;58098;51.680;5.134;2023-02-23T09:08:18;101670.53;;;7.63;100.00
70546;BME280;58098;51.680;5.134;2023-02-23T09:10:44;101673.88;;;7.65;100.00
70546;BME280;58098;51.680;5.134;2023-02-23T09:13:10;101678.91;;;7.68;100.00
70546;BME280;58098;51.680;5.134;2023-02-23T09:15:37;101681.84;;;7.77;100.00
70546;BME280;58098;51.680;5.134;2023-02-23T09:18:03;101683.34;;;7.81;100.00
70546;BME280;58098;51.680;5.134;2023-02-23T09:20:29;101683.13;;;7.86;100.00
70546;BME280;58098;51.680;5.134;2023-02-23T09:22:54;101686.94;;;7.79;100.00
70546;BME280;58098;51.680;5.134;2023-02-23T09:25:20;101676.31;;;7.68;100.00
70546;BME280;58098;51.680;5.134;2023-02-23T09:27:51;101658.38;;;7.63;100.00
70546;BME280;58098;51.680;5.134;2023-02-23T09:30:17;101687.94;;;7.76;100.00
70546;BME280;58098;51.680;5.134;2023-02-23T09:32:48;101693.59;;;7.84;100.00
70546;BME280;58098;51.680;5.134;2023-02-23T09:35:15;101694.88;;;7.93;100.00
70546;BME280;58098;51.680;5.134;2023-02-23T09:37:53;101689.47;;;7.96;100.00
70546;BME280;58098;51.680;5.134;2023-02-23T09:40:25;101693.59;;;8.00;100.00
70546;BME280;58098;51.680;5.134;2023-02-23T09:42:58;101704.00;;;8.00;100.00
70546;BME280;58098;51.680;5.134;2023-02-23T09:45:40;101701.72;;;7.94;100.00
70546;BME280;58098;51.680;5.134;2023-02-23T09:48:15;101708.75;;;7.92;100.00
70546;BME280;58098;51.680;5.134;2023-02-23T09:50:45;101696.69;;;7.91;100.00
70546;BME280;58098;51.680;5.134;2023-02-23T09:55:59;101710.59;;;8.06;100.00
70546;BME280;58098;51.680;5.134;2023-02-23T09:58:29;101698.03;;;8.14;100.00
70546;BME280;58098;51.680;5.134;2023-02-23T10:03:55;101691.31;;;8.25;100.00
70546;BME280;58098;51.680;5.134;2023-02-23T10:06:22;101702.53;;;8.27;100.00
70546;BME280;58098;51.680;5.134;2023-02-23T10:11:27;101701.41;;;8.31;100.00
70546;BME280;58098;51.680;5.134;2023-02-23T10:14:01;101714.66;;;8.42;100.00
70546;BME280;58098;51.680;5.134;2023-02-23T10:16:39;101704.09;;;8.45;100.00
70546;BME280;58098;51.680;5.134;2023-02-23T10:22:06;101713.31;;;8.35;100.00
70546;BME280;58098;51.680;5.134;2023-02-23T10:24:38;101713.91;;;8.40;100.00
70546;BME280;58098;51.680;5.134;2023-02-23T10:27:16;101712.47;;;8.50;100.00
70546;BME280;58098;51.680;5.134;2023-02-23T10:30:01;101717.06;;;8.61;100.00
70546;BME280;58098;51.680;5.134;2023-02-23T10:32:40;101718.47;;;8.67;100.00
70546;BME280;58098;51.680;5.134;2023-02-23T10:35:15;101711.06;;;8.75;100.00
70546;BME280;58098;51.680;5.134;2023-02-23T10:37:41;101714.81;;;8.85;100.00
70546;BME280;58098;51.680;5.134;2023-02-23T10:40:13;101715.69;;;8.99;100.00
70546;BME280;58098;51.680;5.134;2023-02-23T10:42:40;101720.06;;;8.99;100.00
70546;BME280;58098;51.680;5.134;2023-02-23T10:45:15;101720.53;;;9.05;100.00
70546;BME280;58098;51.680;5.134;2023-02-23T10:47:49;101721.75;;;9.00;100.00
70546;BME280;58098;51.680;5.134;2023-02-23T10:50:16;101722.78;;;8.97;100.00
70546;BME280;58098;51.680;5.134;2023-02-23T10:52:44;101713.84;;;9.01;100.00
70546;BME280;58098;51.680;5.134;2023-02-23T10:55:29;101718.72;;;9.07;100.00
70546;BME280;58098;51.680;5.134;2023-02-23T10:58:21;101710.81;;;9.23;100.00
70546;BME280;58098;51.680;5.134;2023-02-23T11:00:58;101717.69;;;9.10;100.00
70546;BME280;58098;51.680;5.134;2023-02-23T11:03:37;101728.00;;;9.11;100.00
70546;BME280;58098;51.680;5.134;2023-02-23T11:06:03;101719.53;;;9.08;100.00
70546;BME280;58098;51.680;5.134;2023-02-23T11:08:32;101724.94;;;9.19;100.00
70546;BME280;58098;51.680;5.134;2023-02-23T11:16:18;101725.75;;;9.05;100.00
70546;BME280;58098;51.680;5.134;2023-02-23T11:19:20;101726.53;;;9.21;100.00
70546;BME280;58098;51.680;5.134;2023-02-23T11:21:51;101723.00;;;9.22;100.00
70546;BME280;58098;51.680;5.134;2023-02-23T11:24:28;101717.72;;;9.24;100.00
70546;BME280;58098;51.680;5.134;2023-02-23T11:26:59;101719.59;;;9.36;100.00
70546;BME280;58098;51.680;5.134;2023-02-23T11:29:33;101726.38;;;9.53;100.00
70546;BME280;58098;51.680;5.134;2023-02-23T11:32:08;101719.03;;;9.73;100.00
70546;BME280;58098;51.680;5.134;2023-02-23T11:34:38;101721.56;;;9.61;100.00
70546;BME280;58098;51.680;5.134;2023-02-23T11:39:57;101720.44;;;9.51;100.00
70546;BME280;58098;51.680;5.134;2023-02-23T11:42:25;101708.50;;;9.32;100.00
70546;BME280;58098;51.680;5.134;2023-02-23T11:45:16;101736.88;;;9.37;100.00
70546;BME280;58098;51.680;5.134;2023-02-23T11:47:55;101722.34;;;9.19;100.00
70546;BME280;58098;51.680;5.134;2023-02-23T11:50:25;101727.84;;;9.28;100.00
70546;BME280;58098;51.680;5.134;2023-02-23T11:53:04;101728.41;;;9.34;100.00
70546;BME280;58098;51.680;5.134;2023-02-23T11:55:31;101718.28;;;9.29;100.00
70546;BME280;58098;51.680;5.134;2023-02-23T12:00:33;101706.84;;;9.46;100.00
70546;BME280;58098;51.680;5.134;2023-02-23T12:02:59;101706.09;;;9.44;100.00
70546;BME280;58098;51.680;5.134;2023-02-23T12:05:27;101714.75;;;9.44;100.00
70546;BME280;58098;51.680;5.134;2023-02-23T12:07:58;101698.47;;;9.41;100.00
70546;BME280;58098;51.680;5.134;2023-02-23T12:10:37;101696.22;;;9.35;100.00
70546;BME280;58098;51.680;5.134;2023-02-23T12:13:34;101699.47;;;9.52;100.00
70546;BME280;58098;51.680;5.134;2023-02-23T12:16:03;101711.78;;;9.50;100.00
70546;BME280;58098;51.680;5.134;2023-02-23T12:21:20;101696.22;;;9.35;100.00
70546;BME280;58098;51.680;5.134;2023-02-23T12:23:50;101703.38;;;9.17;100.00
70546;BME280;58098;51.680;5.134;2023-02-23T12:26:20;101697.59;;;8.98;100.00
70546;BME280;58098;51.680;5.134;2023-02-23T12:31:51;101714.81;;;9.14;100.00
70546;BME280;58098;51.680;5.134;2023-02-23T12:34:29;101724.25;;;9.01;100.00
70546;BME280;58098;51.680;5.134;2023-02-23T12:37:13;101713.78;;;9.03;100.00
70546;BME280;58098;51.680;5.134;2023-02-23T12:39:48;101709.94;;;9.08;100.00
70546;BME280;58098;51.680;5.134;2023-02-23T12:42:23;101707.06;;;9.13;100.00
70546;BME280;58098;51.680;5.134;2023-02-23T12:44:55;101710.44;;;9.15;100.00
70546;BME280;58098;51.680;5.134;2023-02-23T12:47:39;101705.31;;;9.27;100.00
70546;BME280;58098;51.680;5.134;2023-02-23T12:50:28;101706.38;;;9.39;100.00
70546;BME280;58098;51.680;5.134;2023-02-23T12:52:57;101694.72;;;9.30;100.00
70546;BME280;58098;51.680;5.134;2023-02-23T12:58:39;101701.22;;;9.09;100.00
70546;BME280;58098;51.680;5.134;2023-02-23T13:01:11;101719.44;;;9.09;100.00
70546;BME280;58098;51.680;5.134;2023-02-23T13:16:45;101728.53;;;8.73;100.00
70546;BME280;58098;51.680;5.134;2023-02-23T13:19:25;101726.59;;;8.76;100.00
70546;BME280;58098;51.680;5.134;2023-02-23T13:25:01;101726.84;;;8.72;100.00
70546;BME280;58098;51.680;5.134;2023-02-23T13:27:36;101731.41;;;8.68;100.00
70546;BME280;58098;51.680;5.134;2023-02-23T13:30:10;101727.53;;;8.59;100.00
70546;BME280;58098;51.680;5.134;2023-02-23T13:32:36;101725.22;;;8.55;100.00
70546;BME280;58098;51.680;5.134;2023-02-23T13:35:21;101728.72;;;8.70;100.00
70546;BME280;58098;51.680;5.134;2023-02-23T13:37:53;101731.44;;;8.82;100.00
70546;BME280;58098;51.680;5.134;2023-02-23T13:49:03;101718.59;;;8.79;100.00
70546;BME280;58098;51.680;5.134;2023-02-23T13:51:43;101709.66;;;8.69;100.00
70546;BME280;58098;51.680;5.134;2023-02-23T13:56:47;101712.75;;;8.76;100.00
70546;BME280;58098;51.680;5.134;2023-02-23T13:59:18;101713.69;;;8.75;100.00
70546;BME280;58098;51.680;5.134;2023-02-23T14:01:48;101716.44;;;8.72;100.00
70546;BME280;58098;51.680;5.134;2023-02-23T14:04:19;101724.44;;;8.69;100.00
70546;BME280;58098;51.680;5.134;2023-02-23T14:07:01;101717.72;;;8.64;100.00
70546;BME280;58098;51.680;5.134;2023-02-23T14:09:30;101727.97;;;8.68;100.00
70546;BME280;58098;51.680;5.134;2023-02-23T14:12:12;101733.00;;;8.71;100.00
70546;BME280;58098;51.680;5.134;2023-02-23T14:14:44;101735.75;;;8.83;100.00
70546;BME280;58098;51.680;5.134;2023-02-23T14:17:28;101729.00;;;8.95;100.00
70546;BME280;58098;51.680;5.134;2023-02-23T14:20:04;101732.75;;;9.05;100.00
70546;BME280;58098;51.680;5.134;2023-02-23T14:22:33;101737.28;;;9.01;100.00
70546;BME280;58098;51.680;5.134;2023-02-23T14:28:03;101734.03;;;8.98;100.00
70546;BME280;58098;51.680;5.134;2023-02-23T14:30:47;101725.97;;;8.87;100.00
70546;BME280;58098;51.680;5.134;2023-02-23T14:41:28;101726.34;;;8.81;100.00
70546;BME280;58098;51.680;5.134;2023-02-23T14:43:58;101737.66;;;8.80;100.00
70546;BME280;58098;51.680;5.134;2023-02-23T14:46:25;101730.22;;;8.74;100.00
70546;BME280;58098;51.680;5.134;2023-02-23T14:48:57;101732.84;;;8.74;100.00
70546;BME280;58098;51.680;5.134;2023-02-23T14:54:23;101737.19;;;8.73;100.00
70546;BME280;58098;51.680;5.134;2023-02-23T14:56:51;101735.44;;;8.74;100.00
70546;BME280;58098;51.680;5.134;2023-02-23T14:59:19;101732.72;;;8.75;100.00
70546;BME280;58098;51.680;5.134;2023-02-23T15:01:45;101725.34;;;8.68;100.00
70546;BME280;58098;51.680;5.134;2023-02-23T15:04:16;101727.06;;;8.69;100.00
70546;BME280;58098;51.680;5.134;2023-02-23T15:06:43;101725.78;;;8.76;100.00
70546;BME280;58098;51.680;5.134;2023-02-23T15:09:17;101711.44;;;8.69;100.00
70546;BME280;58098;51.680;5.134;2023-02-23T15:11:47;101710.44;;;8.71;100.00